Terminal Aerodrome Forecast
Issued by NWS Sterling, VA

Home | Current Version | Previous Version | Text Only | Print | Product List | Glossary On
Versions: 1 2 3 4 5 6 7 8 9 10 11 12 13 14 15 16 17 18 19 20 21 22 23 24 25 26 27
000
FTUS41 KLWX 290233 AAA
TAFIAD
TAF AMD
KIAD 290233Z 2903/3006 10012G20KT 3SM +SHRA VCTS OVC008CB
     FM291200 10013G23KT 1SM SHRA OVC008
     FM291800 09015G25KT 2SM +SHRA OVC008=

USA.gov is the U.S. government's official web portal to all federal, state and local government web resources and services.